sensor_id;sensor_type;location;lat;lon;timestamp;temperature;humidity
8475;DHT22;4274;52.012;8.448;2024-02-16T00:01:06;10.40;99.90
8475;DHT22;4274;52.012;8.448;2024-02-16T00:03:32;10.40;99.90
8475;DHT22;4274;52.012;8.448;2024-02-16T00:05:58;10.40;99.90
8475;DHT22;4274;52.012;8.448;2024-02-16T00:08:23;10.40;99.90
8475;DHT22;4274;52.012;8.448;2024-02-16T00:10:49;10.30;99.90
8475;DHT22;4274;52.012;8.448;2024-02-16T00:13:14;10.30;99.90
8475;DHT22;4274;52.012;8.448;2024-02-16T00:15:40;10.30;99.90
8475;DHT22;4274;52.012;8.448;2024-02-16T00:18:06;10.30;99.90
8475;DHT22;4274;52.012;8.448;2024-02-16T00:20:32;10.30;99.90
8475;DHT22;4274;52.012;8.448;2024-02-16T00:22:58;10.30;99.90
8475;DHT22;4274;52.012;8.448;2024-02-16T00:25:25;10.30;99.90
8475;DHT22;4274;52.012;8.448;2024-02-16T00:27:51;10.30;99.90
8475;DHT22;4274;52.012;8.448;2024-02-16T00:30:18;10.30;99.90
8475;DHT22;4274;52.012;8.448;2024-02-16T00:32:44;10.30;99.90
8475;DHT22;4274;52.012;8.448;2024-02-16T00:35:11;10.30;99.90
8475;DHT22;4274;52.012;8.448;2024-02-16T00:37:36;10.30;99.90
8475;DHT22;4274;52.012;8.448;2024-02-16T00:40:03;10.30;99.90
8475;DHT22;4274;52.012;8.448;2024-02-16T00:42:30;10.20;99.90
8475;DHT22;4274;52.012;8.448;2024-02-16T00:44:57;10.20;99.90
8475;DHT22;4274;52.012;8.448;2024-02-16T00:47:22;10.20;99.90
8475;DHT22;4274;52.012;8.448;2024-02-16T00:49:49;10.20;99.90
8475;DHT22;4274;52.012;8.448;2024-02-16T00:52:15;10.20;99.90
8475;DHT22;4274;52.012;8.448;2024-02-16T00:54:40;10.10;99.90
8475;DHT22;4274;52.012;8.448;2024-02-16T00:57:06;10.10;99.90
8475;DHT22;4274;52.012;8.448;2024-02-16T00:59:32;10.10;99.90
8475;DHT22;4274;52.012;8.448;2024-02-16T01:01:57;10.10;99.90
8475;DHT22;4274;52.012;8.448;2024-02-16T01:04:23;10.00;99.90
8475;DHT22;4274;52.012;8.448;2024-02-16T01:06:49;10.00;99.90
8475;DHT22;4274;52.012;8.448;2024-02-16T01:09:15;10.00;99.90
8475;DHT22;4274;52.012;8.448;2024-02-16T01:11:41;10.00;99.90
8475;DHT22;4274;52.012;8.448;2024-02-16T01:14:07;10.00;99.90
8475;DHT22;4274;52.012;8.448;2024-02-16T01:16:33;10.00;99.90
8475;DHT22;4274;52.012;8.448;2024-02-16T01:18:59;10.00;99.90
8475;DHT22;4274;52.012;8.448;2024-02-16T01:21:24;9.90;99.90
8475;DHT22;4274;52.012;8.448;2024-02-16T01:23:50;9.90;99.90
8475;DHT22;4274;52.012;8.448;2024-02-16T01:26:16;9.90;99.90
8475;DHT22;4274;52.012;8.448;2024-02-16T01:28:41;9.90;99.90
8475;DHT22;4274;52.012;8.448;2024-02-16T01:31:07;9.90;99.90
8475;DHT22;4274;52.012;8.448;2024-02-16T01:33:36;9.90;99.90
8475;DHT22;4274;52.012;8.448;2024-02-16T01:36:02;9.90;99.90
8475;DHT22;4274;52.012;8.448;2024-02-16T01:38:28;9.90;99.90
8475;DHT22;4274;52.012;8.448;2024-02-16T01:40:54;9.90;99.90
8475;DHT22;4274;52.012;8.448;2024-02-16T01:43:20;9.80;99.90
8475;DHT22;4274;52.012;8.448;2024-02-16T01:45:46;9.80;99.90
8475;DHT22;4274;52.012;8.448;2024-02-16T01:48:13;9.80;99.90
8475;DHT22;4274;52.012;8.448;2024-02-16T01:50:38;9.80;99.90
8475;DHT22;4274;52.012;8.448;2024-02-16T01:53:04;9.80;99.90
8475;DHT22;4274;52.012;8.448;2024-02-16T01:55:30;9.80;99.90
8475;DHT22;4274;52.012;8.448;2024-02-16T01:57:57;9.80;99.90
8475;DHT22;4274;52.012;8.448;2024-02-16T02:00:23;9.80;99.90
8475;DHT22;4274;52.012;8.448;2024-02-16T02:02:49;9.80;99.90
8475;DHT22;4274;52.012;8.448;2024-02-16T02:05:15;9.70;99.90
8475;DHT22;4274;52.012;8.448;2024-02-16T02:07:41;9.80;99.90
8475;DHT22;4274;52.012;8.448;2024-02-16T02:10:08;9.70;99.90
8475;DHT22;4274;52.012;8.448;2024-02-16T02:12:34;9.70;99.90
8475;DHT22;4274;52.012;8.448;2024-02-16T02:14:59;9.70;99.90
8475;DHT22;4274;52.012;8.448;2024-02-16T02:17:25;9.70;99.90
8475;DHT22;4274;52.012;8.448;2024-02-16T02:19:51;9.70;99.90
8475;DHT22;4274;52.012;8.448;2024-02-16T02:22:17;9.70;99.90
8475;DHT22;4274;52.012;8.448;2024-02-16T02:24:47;9.70;99.90
8475;DHT22;4274;52.012;8.448;2024-02-16T02:27:14;9.80;99.90
8475;DHT22;4274;52.012;8.448;2024-02-16T02:29:40;9.80;99.90
8475;DHT22;4274;52.012;8.448;2024-02-16T02:32:07;9.80;99.90
8475;DHT22;4274;52.012;8.448;2024-02-16T02:34:33;9.90;99.90
8475;DHT22;4274;52.012;8.448;2024-02-16T02:36:59;9.90;99.90
8475;DHT22;4274;52.012;8.448;2024-02-16T02:39:24;9.90;99.90
8475;DHT22;4274;52.012;8.448;2024-02-16T02:41:50;9.90;99.90
8475;DHT22;4274;52.012;8.448;2024-02-16T02:44:16;10.00;99.90
8475;DHT22;4274;52.012;8.448;2024-02-16T02:46:41;10.00;99.90
8475;DHT22;4274;52.012;8.448;2024-02-16T02:49:07;10.00;99.90
8475;DHT22;4274;52.012;8.448;2024-02-16T02:51:33;10.10;99.90
8475;DHT22;4274;52.012;8.448;2024-02-16T02:53:59;10.20;99.90
8475;DHT22;4274;52.012;8.448;2024-02-16T02:56:24;10.20;99.90
8475;DHT22;4274;52.012;8.448;2024-02-16T02:58:50;10.10;99.90
8475;DHT22;4274;52.012;8.448;2024-02-16T03:01:15;10.10;99.90
8475;DHT22;4274;52.012;8.448;2024-02-16T03:03:41;10.10;99.90
8475;DHT22;4274;52.012;8.448;2024-02-16T03:06:08;10.20;99.90
8475;DHT22;4274;52.012;8.448;2024-02-16T03:08:35;10.10;99.90
8475;DHT22;4274;52.012;8.448;2024-02-16T03:11:00;10.10;99.90
8475;DHT22;4274;52.012;8.448;2024-02-16T03:13:26;10.10;99.90
8475;DHT22;4274;52.012;8.448;2024-02-16T03:15:52;10.10;99.90
8475;DHT22;4274;52.012;8.448;2024-02-16T03:18:19;10.10;99.90
8475;DHT22;4274;52.012;8.448;2024-02-16T03:20:45;10.00;99.90
8475;DHT22;4274;52.012;8.448;2024-02-16T03:23:13;10.00;99.90
8475;DHT22;4274;52.012;8.448;2024-02-16T03:25:39;10.00;99.90
8475;DHT22;4274;52.012;8.448;2024-02-16T03:28:05;10.00;99.90
8475;DHT22;4274;52.012;8.448;2024-02-16T03:30:31;10.00;99.90
8475;DHT22;4274;52.012;8.448;2024-02-16T03:32:56;10.00;99.90
8475;DHT22;4274;52.012;8.448;2024-02-16T03:35:22;10.00;99.90
8475;DHT22;4274;52.012;8.448;2024-02-16T03:37:47;10.00;99.90
8475;DHT22;4274;52.012;8.448;2024-02-16T03:40:13;10.00;99.90
8475;DHT22;4274;52.012;8.448;2024-02-16T03:42:39;10.00;99.90
8475;DHT22;4274;52.012;8.448;2024-02-16T03:45:06;10.00;99.90
8475;DHT22;4274;52.012;8.448;2024-02-16T03:47:32;9.90;99.90
8475;DHT22;4274;52.012;8.448;2024-02-16T03:49:58;9.90;99.90
8475;DHT22;4274;52.012;8.448;2024-02-16T03:52:23;9.90;99.90
8475;DHT22;4274;52.012;8.448;2024-02-16T03:54:50;10.00;99.90
8475;DHT22;4274;52.012;8.448;2024-02-16T03:57:16;10.00;99.90
8475;DHT22;4274;52.012;8.448;2024-02-16T03:59:45;10.00;99.90
8475;DHT22;4274;52.012;8.448;2024-02-16T04:02:11;10.00;99.90
8475;DHT22;4274;52.012;8.448;2024-02-16T04:04:39;10.00;99.90
8475;DHT22;4274;52.012;8.448;2024-02-16T04:07:05;10.00;99.90
8475;DHT22;4274;52.012;8.448;2024-02-16T04:09:32;10.10;99.90
8475;DHT22;4274;52.012;8.448;2024-02-16T04:11:58;10.10;99.90
8475;DHT22;4274;52.012;8.448;2024-02-16T04:14:24;10.20;99.90
8475;DHT22;4274;52.012;8.448;2024-02-16T04:16:49;10.20;99.90
8475;DHT22;4274;52.012;8.448;2024-02-16T04:19:15;10.20;99.90
8475;DHT22;4274;52.012;8.448;2024-02-16T04:21:41;10.20;99.90
8475;DHT22;4274;52.012;8.448;2024-02-16T04:24:07;10.20;99.90
8475;DHT22;4274;52.012;8.448;2024-02-16T04:26:33;10.20;99.90
8475;DHT22;4274;52.012;8.448;2024-02-16T04:28:58;10.20;99.90
8475;DHT22;4274;52.012;8.448;2024-02-16T04:31:24;10.10;99.90
8475;DHT22;4274;52.012;8.448;2024-02-16T04:33:49;10.10;99.90
8475;DHT22;4274;52.012;8.448;2024-02-16T04:36:16;10.10;99.90
8475;DHT22;4274;52.012;8.448;2024-02-16T04:38:41;10.10;99.90
8475;DHT22;4274;52.012;8.448;2024-02-16T04:41:08;10.10;99.90
8475;DHT22;4274;52.012;8.448;2024-02-16T04:43:34;10.10;99.90
8475;DHT22;4274;52.012;8.448;2024-02-16T04:46:00;10.10;99.90
8475;DHT22;4274;52.012;8.448;2024-02-16T04:48:26;10.20;99.90
8475;DHT22;4274;52.012;8.448;2024-02-16T04:50:51;10.20;99.90
8475;DHT22;4274;52.012;8.448;2024-02-16T04:53:17;10.10;99.90
8475;DHT22;4274;52.012;8.448;2024-02-16T04:55:42;10.10;99.90
8475;DHT22;4274;52.012;8.448;2024-02-16T04:58:08;10.10;99.90
8475;DHT22;4274;52.012;8.448;2024-02-16T05:00:39;10.10;99.90
8475;DHT22;4274;52.012;8.448;2024-02-16T05:03:05;10.10;99.90
8475;DHT22;4274;52.012;8.448;2024-02-16T05:05:31;10.10;99.90
8475;DHT22;4274;52.012;8.448;2024-02-16T05:07:56;10.10;99.90
8475;DHT22;4274;52.012;8.448;2024-02-16T05:10:22;10.10;99.90
8475;DHT22;4274;52.012;8.448;2024-02-16T05:12:48;10.10;99.90
8475;DHT22;4274;52.012;8.448;2024-02-16T05:15:14;10.10;99.90
8475;DHT22;4274;52.012;8.448;2024-02-16T05:17:40;10.10;99.90
8475;DHT22;4274;52.012;8.448;2024-02-16T05:20:12;10.10;99.90
8475;DHT22;4274;52.012;8.448;2024-02-16T05:22:43;10.10;99.90
8475;DHT22;4274;52.012;8.448;2024-02-16T05:25:11;10.20;99.90
8475;DHT22;4274;52.012;8.448;2024-02-16T05:27:37;10.20;99.90
8475;DHT22;4274;52.012;8.448;2024-02-16T05:30:04;10.20;99.90
8475;DHT22;4274;52.012;8.448;2024-02-16T05:32:35;10.20;99.90
8475;DHT22;4274;52.012;8.448;2024-02-16T05:35:03;10.10;99.90
8475;DHT22;4274;52.012;8.448;2024-02-16T05:37:40;10.10;99.90
8475;DHT22;4274;52.012;8.448;2024-02-16T05:40:09;10.10;99.90
8475;DHT22;4274;52.012;8.448;2024-02-16T05:42:45;10.20;99.90
8475;DHT22;4274;52.012;8.448;2024-02-16T05:45:11;10.20;99.90
8475;DHT22;4274;52.012;8.448;2024-02-16T05:47:37;10.20;99.90
8475;DHT22;4274;52.012;8.448;2024-02-16T05:50:04;10.20;99.90
8475;DHT22;4274;52.012;8.448;2024-02-16T05:52:30;10.20;99.90
8475;DHT22;4274;52.012;8.448;2024-02-16T05:54:56;10.20;99.90
8475;DHT22;4274;52.012;8.448;2024-02-16T05:57:21;10.20;99.90
8475;DHT22;4274;52.012;8.448;2024-02-16T05:59:48;10.20;99.90
8475;DHT22;4274;52.012;8.448;2024-02-16T06:02:14;10.10;99.90
8475;DHT22;4274;52.012;8.448;2024-02-16T06:04:41;10.10;99.90
8475;DHT22;4274;52.012;8.448;2024-02-16T06:07:07;10.10;99.90
8475;DHT22;4274;52.012;8.448;2024-02-16T06:09:33;10.10;99.90
8475;DHT22;4274;52.012;8.448;2024-02-16T06:12:04;10.10;99.90
8475;DHT22;4274;52.012;8.448;2024-02-16T06:14:33;10.10;99.90
8475;DHT22;4274;52.012;8.448;2024-02-16T06:16:59;10.20;99.90
8475;DHT22;4274;52.012;8.448;2024-02-16T06:19:26;10.20;99.90
8475;DHT22;4274;52.012;8.448;2024-02-16T06:21:53;10.20;99.90
8475;DHT22;4274;52.012;8.448;2024-02-16T06:24:22;10.20;99.90
8475;DHT22;4274;52.012;8.448;2024-02-16T06:26:49;10.20;99.90
8475;DHT22;4274;52.012;8.448;2024-02-16T06:29:15;10.20;99.90
8475;DHT22;4274;52.012;8.448;2024-02-16T06:31:40;10.20;99.90
8475;DHT22;4274;52.012;8.448;2024-02-16T06:34:06;10.20;99.90
8475;DHT22;4274;52.012;8.448;2024-02-16T06:36:32;10.20;99.90
8475;DHT22;4274;52.012;8.448;2024-02-16T06:38:57;10.20;99.90
8475;DHT22;4274;52.012;8.448;2024-02-16T06:41:23;10.30;99.90
8475;DHT22;4274;52.012;8.448;2024-02-16T06:43:48;10.30;99.90
8475;DHT22;4274;52.012;8.448;2024-02-16T06:46:14;10.30;99.90
8475;DHT22;4274;52.012;8.448;2024-02-16T06:48:40;10.40;99.90
8475;DHT22;4274;52.012;8.448;2024-02-16T06:51:05;10.40;99.90
8475;DHT22;4274;52.012;8.448;2024-02-16T06:53:32;10.40;99.90
8475;DHT22;4274;52.012;8.448;2024-02-16T06:55:58;10.40;99.90
8475;DHT22;4274;52.012;8.448;2024-02-16T06:58:23;10.40;99.90
8475;DHT22;4274;52.012;8.448;2024-02-16T07:00:49;10.40;99.90
8475;DHT22;4274;52.012;8.448;2024-02-16T07:03:15;10.40;99.90
8475;DHT22;4274;52.012;8.448;2024-02-16T07:05:41;10.40;99.90
8475;DHT22;4274;52.012;8.448;2024-02-16T07:08:06;10.50;99.90
8475;DHT22;4274;52.012;8.448;2024-02-16T07:10:33;10.50;99.90
8475;DHT22;4274;52.012;8.448;2024-02-16T07:12:59;10.50;99.90
8475;DHT22;4274;52.012;8.448;2024-02-16T07:15:25;10.60;99.90
8475;DHT22;4274;52.012;8.448;2024-02-16T07:17:52;10.60;99.90
8475;DHT22;4274;52.012;8.448;2024-02-16T07:20:18;10.70;99.90
8475;DHT22;4274;52.012;8.448;2024-02-16T07:22:44;10.70;99.90
8475;DHT22;4274;52.012;8.448;2024-02-16T07:25:11;10.80;99.90
8475;DHT22;4274;52.012;8.448;2024-02-16T07:27:38;10.80;99.90
8475;DHT22;4274;52.012;8.448;2024-02-16T07:30:04;10.70;99.90
8475;DHT22;4274;52.012;8.448;2024-02-16T07:32:30;10.80;99.90
8475;DHT22;4274;52.012;8.448;2024-02-16T07:34:55;10.80;99.90
8475;DHT22;4274;52.012;8.448;2024-02-16T07:37:21;10.80;99.90
8475;DHT22;4274;52.012;8.448;2024-02-16T07:39:46;10.70;99.90
8475;DHT22;4274;52.012;8.448;2024-02-16T07:42:12;10.80;99.90
8475;DHT22;4274;52.012;8.448;2024-02-16T07:44:39;10.80;99.90
8475;DHT22;4274;52.012;8.448;2024-02-16T07:47:04;10.90;99.90
8475;DHT22;4274;52.012;8.448;2024-02-16T07:49:30;11.00;99.90
8475;DHT22;4274;52.012;8.448;2024-02-16T07:51:56;11.10;99.90
8475;DHT22;4274;52.012;8.448;2024-02-16T07:54:23;11.20;99.90
8475;DHT22;4274;52.012;8.448;2024-02-16T07:56:48;11.30;99.90
8475;DHT22;4274;52.012;8.448;2024-02-16T07:59:14;11.40;99.90
8475;DHT22;4274;52.012;8.448;2024-02-16T08:01:40;11.50;99.90
8475;DHT22;4274;52.012;8.448;2024-02-16T08:04:06;11.50;99.90
8475;DHT22;4274;52.012;8.448;2024-02-16T08:06:31;11.50;99.90
8475;DHT22;4274;52.012;8.448;2024-02-16T08:08:57;11.60;99.90
8475;DHT22;4274;52.012;8.448;2024-02-16T08:11:23;11.60;99.90
8475;DHT22;4274;52.012;8.448;2024-02-16T08:13:48;11.60;99.90
8475;DHT22;4274;52.012;8.448;2024-02-16T08:16:14;11.60;99.90
8475;DHT22;4274;52.012;8.448;2024-02-16T08:18:39;11.60;99.90
8475;DHT22;4274;52.012;8.448;2024-02-16T08:21:05;11.70;99.90
8475;DHT22;4274;52.012;8.448;2024-02-16T08:23:31;11.70;99.90
8475;DHT22;4274;52.012;8.448;2024-02-16T08:25:56;11.80;99.90
8475;DHT22;4274;52.012;8.448;2024-02-16T08:28:23;11.80;99.90
8475;DHT22;4274;52.012;8.448;2024-02-16T08:30:49;11.80;99.90
8475;DHT22;4274;52.012;8.448;2024-02-16T08:33:14;11.90;99.90
8475;DHT22;4274;52.012;8.448;2024-02-16T08:35:40;11.90;99.90
8475;DHT22;4274;52.012;8.448;2024-02-16T08:38:05;12.00;99.90
8475;DHT22;4274;52.012;8.448;2024-02-16T08:40:35;12.10;99.90
8475;DHT22;4274;52.012;8.448;2024-02-16T08:43:01;12.20;99.90
8475;DHT22;4274;52.012;8.448;2024-02-16T08:45:28;12.30;99.90
8475;DHT22;4274;52.012;8.448;2024-02-16T08:47:54;12.30;99.90
8475;DHT22;4274;52.012;8.448;2024-02-16T08:50:19;12.30;99.90
8475;DHT22;4274;52.012;8.448;2024-02-16T08:52:45;12.40;99.90
8475;DHT22;4274;52.012;8.448;2024-02-16T08:55:10;12.40;99.90
8475;DHT22;4274;52.012;8.448;2024-02-16T08:57:36;12.50;99.90
8475;DHT22;4274;52.012;8.448;2024-02-16T09:00:02;12.60;99.90
8475;DHT22;4274;52.012;8.448;2024-02-16T09:02:29;12.60;99.90
8475;DHT22;4274;52.012;8.448;2024-02-16T09:04:54;12.70;99.90
8475;DHT22;4274;52.012;8.448;2024-02-16T09:07:20;12.80;99.90
8475;DHT22;4274;52.012;8.448;2024-02-16T09:09:45;12.90;99.90
8475;DHT22;4274;52.012;8.448;2024-02-16T09:12:11;13.00;99.90
8475;DHT22;4274;52.012;8.448;2024-02-16T09:14:37;13.10;99.90
8475;DHT22;4274;52.012;8.448;2024-02-16T09:17:02;13.20;99.90
8475;DHT22;4274;52.012;8.448;2024-02-16T09:19:28;13.20;99.90
8475;DHT22;4274;52.012;8.448;2024-02-16T09:21:53;13.30;99.90
8475;DHT22;4274;52.012;8.448;2024-02-16T09:24:20;13.40;99.90
8475;DHT22;4274;52.012;8.448;2024-02-16T09:26:46;13.50;99.90
8475;DHT22;4274;52.012;8.448;2024-02-16T09:29:14;13.60;99.90
8475;DHT22;4274;52.012;8.448;2024-02-16T09:31:43;13.70;99.90
8475;DHT22;4274;52.012;8.448;2024-02-16T09:34:09;13.80;99.90
8475;DHT22;4274;52.012;8.448;2024-02-16T09:36:34;13.80;99.90
8475;DHT22;4274;52.012;8.448;2024-02-16T09:39:02;13.90;99.90
8475;DHT22;4274;52.012;8.448;2024-02-16T09:41:28;14.00;99.90
8475;DHT22;4274;52.012;8.448;2024-02-16T09:43:54;14.00;99.90
8475;DHT22;4274;52.012;8.448;2024-02-16T09:46:21;14.10;99.90
8475;DHT22;4274;52.012;8.448;2024-02-16T09:48:48;14.20;99.90
8475;DHT22;4274;52.012;8.448;2024-02-16T09:51:17;14.20;99.90
8475;DHT22;4274;52.012;8.448;2024-02-16T09:53:43;14.20;99.90
8475;DHT22;4274;52.012;8.448;2024-02-16T09:56:09;14.20;99.90
8475;DHT22;4274;52.012;8.448;2024-02-16T09:58:35;14.20;99.90
8475;DHT22;4274;52.012;8.448;2024-02-16T10:01:02;14.10;99.90
8475;DHT22;4274;52.012;8.448;2024-02-16T10:03:30;14.00;99.90
8475;DHT22;4274;52.012;8.448;2024-02-16T10:06:08;14.10;99.90
8475;DHT22;4274;52.012;8.448;2024-02-16T10:08:46;14.10;99.90
8475;DHT22;4274;52.012;8.448;2024-02-16T10:11:12;14.30;99.90
8475;DHT22;4274;52.012;8.448;2024-02-16T10:13:40;14.50;99.90
8475;DHT22;4274;52.012;8.448;2024-02-16T10:16:10;14.90;99.90
8475;DHT22;4274;52.012;8.448;2024-02-16T10:18:37;15.50;99.90
8475;DHT22;4274;52.012;8.448;2024-02-16T10:21:03;16.30;99.90
8475;DHT22;4274;52.012;8.448;2024-02-16T10:23:29;17.10;99.90
8475;DHT22;4274;52.012;8.448;2024-02-16T10:25:55;17.80;99.90
8475;DHT22;4274;52.012;8.448;2024-02-16T10:28:20;18.50;99.90
8475;DHT22;4274;52.012;8.448;2024-02-16T10:30:57;19.10;99.90
8475;DHT22;4274;52.012;8.448;2024-02-16T10:33:24;19.30;99.90
8475;DHT22;4274;52.012;8.448;2024-02-16T10:35:50;19.20;99.90
8475;DHT22;4274;52.012;8.448;2024-02-16T10:38:17;19.00;99.90
8475;DHT22;4274;52.012;8.448;2024-02-16T10:40:43;18.80;99.90
8475;DHT22;4274;52.012;8.448;2024-02-16T10:43:12;18.40;99.90
8475;DHT22;4274;52.012;8.448;2024-02-16T10:45:39;17.90;99.90
8475;DHT22;4274;52.012;8.448;2024-02-16T10:48:06;17.60;99.90
8475;DHT22;4274;52.012;8.448;2024-02-16T10:50:34;17.30;99.90
8475;DHT22;4274;52.012;8.448;2024-02-16T10:55:36;16.80;99.90
8475;DHT22;4274;52.012;8.448;2024-02-16T10:58:02;16.60;99.90
8475;DHT22;4274;52.012;8.448;2024-02-16T11:00:27;16.50;99.90
8475;DHT22;4274;52.012;8.448;2024-02-16T11:02:57;16.30;99.90
8475;DHT22;4274;52.012;8.448;2024-02-16T11:05:36;16.10;99.90
8475;DHT22;4274;52.012;8.448;2024-02-16T11:08:13;15.80;99.90
8475;DHT22;4274;52.012;8.448;2024-02-16T11:10:39;15.60;99.90
8475;DHT22;4274;52.012;8.448;2024-02-16T11:13:04;15.50;99.90
8475;DHT22;4274;52.012;8.448;2024-02-16T11:15:34;15.40;99.90
8475;DHT22;4274;52.012;8.448;2024-02-16T11:18:02;15.40;99.90
8475;DHT22;4274;52.012;8.448;2024-02-16T11:20:28;15.20;99.90
8475;DHT22;4274;52.012;8.448;2024-02-16T11:23:04;15.10;99.90
8475;DHT22;4274;52.012;8.448;2024-02-16T11:25:33;15.10;99.90
8475;DHT22;4274;52.012;8.448;2024-02-16T11:27:59;15.00;99.90
8475;DHT22;4274;52.012;8.448;2024-02-16T11:30:25;15.00;99.90
8475;DHT22;4274;52.012;8.448;2024-02-16T11:32:51;14.90;99.90
8475;DHT22;4274;52.012;8.448;2024-02-16T11:35:17;14.90;99.90
8475;DHT22;4274;52.012;8.448;2024-02-16T11:37:43;14.80;99.90
8475;DHT22;4274;52.012;8.448;2024-02-16T11:40:13;14.80;99.90
8475;DHT22;4274;52.012;8.448;2024-02-16T11:42:39;14.80;99.90
8475;DHT22;4274;52.012;8.448;2024-02-16T11:45:09;14.70;99.90
8475;DHT22;4274;52.012;8.448;2024-02-16T11:47:35;14.70;99.90
8475;DHT22;4274;52.012;8.448;2024-02-16T11:50:04;14.70;99.90
8475;DHT22;4274;52.012;8.448;2024-02-16T11:52:31;14.70;99.90
8475;DHT22;4274;52.012;8.448;2024-02-16T11:54:57;14.60;99.90
8475;DHT22;4274;52.012;8.448;2024-02-16T11:57:26;14.60;99.90
8475;DHT22;4274;52.012;8.448;2024-02-16T11:59:52;14.50;99.90
8475;DHT22;4274;52.012;8.448;2024-02-16T12:02:19;14.50;99.90
8475;DHT22;4274;52.012;8.448;2024-02-16T12:04:46;14.60;99.90
8475;DHT22;4274;52.012;8.448;2024-02-16T12:07:13;14.60;99.90
8475;DHT22;4274;52.012;8.448;2024-02-16T12:09:41;14.60;99.90
8475;DHT22;4274;52.012;8.448;2024-02-16T12:12:07;14.60;99.90
8475;DHT22;4274;52.012;8.448;2024-02-16T12:14:32;14.60;99.90
8475;DHT22;4274;52.012;8.448;2024-02-16T12:16:58;14.60;99.90
8475;DHT22;4274;52.012;8.448;2024-02-16T12:19:24;14.50;99.90
8475;DHT22;4274;52.012;8.448;2024-02-16T12:21:55;14.50;99.90
8475;DHT22;4274;52.012;8.448;2024-02-16T12:24:22;14.50;99.90
8475;DHT22;4274;52.012;8.448;2024-02-16T12:26:48;14.50;99.90
8475;DHT22;4274;52.012;8.448;2024-02-16T12:29:14;14.50;99.90
8475;DHT22;4274;52.012;8.448;2024-02-16T12:31:41;14.50;99.90
8475;DHT22;4274;52.012;8.448;2024-02-16T12:34:07;14.50;99.90
8475;DHT22;4274;52.012;8.448;2024-02-16T12:36:34;14.50;99.90
8475;DHT22;4274;52.012;8.448;2024-02-16T12:39:00;14.50;99.90
8475;DHT22;4274;52.012;8.448;2024-02-16T12:41:25;14.50;99.90
8475;DHT22;4274;52.012;8.448;2024-02-16T12:43:51;14.40;99.90
8475;DHT22;4274;52.012;8.448;2024-02-16T12:46:17;14.40;99.90
8475;DHT22;4274;52.012;8.448;2024-02-16T12:48:43;14.50;99.90
8475;DHT22;4274;52.012;8.448;2024-02-16T12:51:08;14.40;99.90
8475;DHT22;4274;52.012;8.448;2024-02-16T12:53:36;14.40;99.90
8475;DHT22;4274;52.012;8.448;2024-02-16T12:56:09;14.40;99.90
8475;DHT22;4274;52.012;8.448;2024-02-16T12:58:38;14.30;99.90
8475;DHT22;4274;52.012;8.448;2024-02-16T13:01:04;14.40;99.90
8475;DHT22;4274;52.012;8.448;2024-02-16T13:03:34;14.30;99.90
8475;DHT22;4274;52.012;8.448;2024-02-16T13:06:00;14.30;99.90
8475;DHT22;4274;52.012;8.448;2024-02-16T13:08:26;14.20;99.90
8475;DHT22;4274;52.012;8.448;2024-02-16T13:10:52;14.20;99.90
8475;DHT22;4274;52.012;8.448;2024-02-16T13:13:18;14.20;99.90
8475;DHT22;4274;52.012;8.448;2024-02-16T13:15:43;14.20;99.90
8475;DHT22;4274;52.012;8.448;2024-02-16T13:18:09;14.10;99.90
8475;DHT22;4274;52.012;8.448;2024-02-16T13:20:35;14.10;99.90
8475;DHT22;4274;52.012;8.448;2024-02-16T13:23:01;14.20;99.90
8475;DHT22;4274;52.012;8.448;2024-02-16T13:25:26;14.20;99.90
8475;DHT22;4274;52.012;8.448;2024-02-16T13:27:52;14.20;99.90
8475;DHT22;4274;52.012;8.448;2024-02-16T13:30:18;14.20;99.90
8475;DHT22;4274;52.012;8.448;2024-02-16T13:32:43;14.20;99.90
8475;DHT22;4274;52.012;8.448;2024-02-16T13:35:09;14.20;99.90
8475;DHT22;4274;52.012;8.448;2024-02-16T13:37:35;14.20;99.90
8475;DHT22;4274;52.012;8.448;2024-02-16T13:40:01;14.20;99.90
8475;DHT22;4274;52.012;8.448;2024-02-16T13:42:29;14.20;99.90
8475;DHT22;4274;52.012;8.448;2024-02-16T13:44:56;14.10;99.90
8475;DHT22;4274;52.012;8.448;2024-02-16T13:47:23;14.10;99.90
8475;DHT22;4274;52.012;8.448;2024-02-16T13:49:48;14.10;99.90
8475;DHT22;4274;52.012;8.448;2024-02-16T13:52:14;14.10;99.90
8475;DHT22;4274;52.012;8.448;2024-02-16T13:54:40;14.00;99.90
8475;DHT22;4274;52.012;8.448;2024-02-16T13:57:06;14.10;99.90
8475;DHT22;4274;52.012;8.448;2024-02-16T13:59:31;14.00;99.90
8475;DHT22;4274;52.012;8.448;2024-02-16T14:01:59;14.00;99.90
8475;DHT22;4274;52.012;8.448;2024-02-16T14:04:25;14.00;99.90
8475;DHT22;4274;52.012;8.448;2024-02-16T14:06:52;13.90;99.90
8475;DHT22;4274;52.012;8.448;2024-02-16T14:09:18;13.90;99.90
8475;DHT22;4274;52.012;8.448;2024-02-16T14:11:47;13.90;99.90
8475;DHT22;4274;52.012;8.448;2024-02-16T14:14:12;13.90;99.90
8475;DHT22;4274;52.012;8.448;2024-02-16T14:16:38;13.90;99.90
8475;DHT22;4274;52.012;8.448;2024-02-16T14:19:03;13.80;99.90
8475;DHT22;4274;52.012;8.448;2024-02-16T14:21:29;13.80;99.90
8475;DHT22;4274;52.012;8.448;2024-02-16T14:23:55;13.80;99.90
8475;DHT22;4274;52.012;8.448;2024-02-16T14:26:20;13.80;99.90
8475;DHT22;4274;52.012;8.448;2024-02-16T14:28:46;13.80;99.90
8475;DHT22;4274;52.012;8.448;2024-02-16T14:31:12;13.70;99.90
8475;DHT22;4274;52.012;8.448;2024-02-16T14:33:42;13.80;99.90
8475;DHT22;4274;52.012;8.448;2024-02-16T14:36:09;13.70;99.90
8475;DHT22;4274;52.012;8.448;2024-02-16T14:38:35;13.80;99.90
8475;DHT22;4274;52.012;8.448;2024-02-16T14:41:01;13.70;99.90
8475;DHT22;4274;52.012;8.448;2024-02-16T14:43:31;13.70;99.90
8475;DHT22;4274;52.012;8.448;2024-02-16T14:45:58;13.70;99.90
8475;DHT22;4274;52.012;8.448;2024-02-16T14:48:24;13.70;99.90
8475;DHT22;4274;52.012;8.448;2024-02-16T14:50:53;13.60;99.90
8475;DHT22;4274;52.012;8.448;2024-02-16T14:53:19;13.50;99.90
8475;DHT22;4274;52.012;8.448;2024-02-16T14:55:46;13.40;99.90
8475;DHT22;4274;52.012;8.448;2024-02-16T14:58:12;13.30;99.90
8475;DHT22;4274;52.012;8.448;2024-02-16T15:00:38;13.20;99.90
8475;DHT22;4274;52.012;8.448;2024-02-16T15:03:04;13.10;99.90
8475;DHT22;4274;52.012;8.448;2024-02-16T15:05:30;12.90;99.90
8475;DHT22;4274;52.012;8.448;2024-02-16T15:07:56;12.90;99.90
8475;DHT22;4274;52.012;8.448;2024-02-16T15:10:21;12.80;99.90
8475;DHT22;4274;52.012;8.448;2024-02-16T15:12:47;12.70;99.90
8475;DHT22;4274;52.012;8.448;2024-02-16T15:15:12;12.60;99.90
8475;DHT22;4274;52.012;8.448;2024-02-16T15:17:39;12.50;99.90
8475;DHT22;4274;52.012;8.448;2024-02-16T15:20:05;12.50;99.90
8475;DHT22;4274;52.012;8.448;2024-02-16T15:22:32;12.40;99.90
8475;DHT22;4274;52.012;8.448;2024-02-16T15:24:58;12.40;99.90
8475;DHT22;4274;52.012;8.448;2024-02-16T15:27:24;12.40;99.90
8475;DHT22;4274;52.012;8.448;2024-02-16T15:29:50;12.30;99.90
8475;DHT22;4274;52.012;8.448;2024-02-16T15:32:16;12.40;99.90
8475;DHT22;4274;52.012;8.448;2024-02-16T15:34:42;12.30;99.90
8475;DHT22;4274;52.012;8.448;2024-02-16T15:37:11;12.30;99.90
8475;DHT22;4274;52.012;8.448;2024-02-16T15:39:37;12.30;99.90
8475;DHT22;4274;52.012;8.448;2024-02-16T15:42:03;12.30;99.90
8475;DHT22;4274;52.012;8.448;2024-02-16T15:44:28;12.30;99.90
8475;DHT22;4274;52.012;8.448;2024-02-16T15:46:54;12.30;99.90
8475;DHT22;4274;52.012;8.448;2024-02-16T15:49:20;12.30;99.90
8475;DHT22;4274;52.012;8.448;2024-02-16T15:51:46;12.20;99.90
8475;DHT22;4274;52.012;8.448;2024-02-16T15:54:11;12.20;99.90
8475;DHT22;4274;52.012;8.448;2024-02-16T15:56:38;12.10;99.90
8475;DHT22;4274;52.012;8.448;2024-02-16T15:59:03;12.20;99.90